Airfield :
LOGIN :

Register | Disclaimer

   EN    FR    IT 

 










Legend :    VFR   Marginal VFR   IFR   Intensive IFR   Very Intensive IFR
Visi :
Ceiling :
>= 8 km
>= 3000ft
5 to 8 km
1000 to 3000 ft
1500m to 5 km
500 to 1000 ft
800 to 1500m
200 to 500 ft
< 800m
< 200 ft
Symbols :   Thunderstorms  Fog  Heavy snow  Heavy precipitations  Wind > 20 kt
SIGMETs :     Misc.  Thunderstorms  Icing  Turbulence  Mountain Waves  Volcanic Ashes






- Airport Elevation : 33 ft
- IATA code : MHZ


EGUN - RAF Mildenhall

CURRENT METAR :
  • 020155Z 33005KT 0300 R28/0650V0700 FG VV000 05/05 A3033 RMK AO2A SLP274 T00520052 $

EXPIRED METARs :
  • 020105Z 32003KT 0200 R28/0600V0650 FG VV000 05/05 A3034 RMK AO2A SLP278 $
  • 020055Z 32005KT 0300 R28/0650 FG VV001 05/05 A3034 RMK AO2A SLP278 T00490049 $
  • 020041Z 33005KT 0300 R28/0650 FG VV001 05/05 A3034 RMK AO2A SLP278 $
  • 020005Z 33004KT 0400 R28/0700V0750 FG VV001 05/05 A3035 RMK AO2A SLP281 $
  • 012355Z 32004KT 0400 R28/0800 FG VV001 05/05 A3035 RMK AO2A SLP281 T00520052 10059 20052 400810020 57006 $
  • 012341Z 33005KT 0400 R28/0800V0900 FG VV001 05/05 A3036 RMK SLP284 $

TAF AMD TAF EGUN
Valid from the 02 at 00:00 until the 03 at 02:00 UTC


020000Z 0200/0302 32005KT 0400 FG VV001 600351 600804 QNH3028INS
TEMPO 0200/0205 36007KT 1000 BR BCFG BKN003 BKN025
BECMG 0205/0207 01006KT 3200 BR SCT004 BKN009 BKN030 620352 QNH3027INS
BECMG 0207/0209 03007KT 8000 BR SCT012 BKN035 620353 QNH3026INS
BECMG 0209/0211 05010KT 9999 NSW SCT020 BKN040 600402 QNH3025INS
TEMPO 0212/0216 05015KT -SHRA BKN020 BKN040 610307
BECMG 0216/0218 07012KT 9999 FEW012 BKN025 BKN050 600302 QNH3028INS
BECMG 0223/0224 08010KT 9999 SCT015 BKN030 WS014/07030KT 600302 510202 QNH3025INS
TEMPO 0300/0302 07010G20KT 510004 TX09/0213Z TN02/0206Z



MET'MAP, your aeronautical weather chart ! - Copyright ORBIFLY December 2007 - Disclaimer

ORBIFLY MET'MAP TEAM :

Programming & Development : Alexandra Zaïnal
Original concept : Baudouin d'Aumeries
Technical & hardware support : Manuel Goepfert
Assistance : Marc-Olivier Méhu




SOURCES & CREDITS :

   NOAA